createdAt,value
2018-12-03T08:31:14.462Z,780.15
2018-12-03T08:32:45.068Z,601.91
2018-12-03T08:33:45.198Z,598.43
2018-12-03T08:34:45.019Z,581.88
2018-12-03T08:35:45.003Z,565.72
2018-12-03T08:36:44.990Z,559.56
2018-12-03T08:37:44.979Z,572.98
2018-12-03T08:38:44.978Z,568.21
2018-12-03T08:39:44.966Z,553.69
2018-12-03T08:40:44.952Z,565.56
2018-12-03T08:41:44.936Z,543.69
2018-12-03T08:42:44.950Z,558.63
2018-12-03T08:43:45.434Z,550.89
2018-12-03T08:44:44.908Z,547.11
2018-12-03T08:45:44.906Z,545.71
2018-12-03T08:46:44.879Z,545.26
2018-12-03T08:47:44.883Z,572.55
2018-12-03T08:48:44.862Z,554.34
2018-12-03T08:49:44.939Z,537.74
2018-12-03T08:50:44.839Z,539.42
2018-12-03T08:51:44.848Z,547.66
2018-12-03T08:52:44.851Z,547.42
2018-12-03T08:53:44.865Z,551.92
2018-12-03T08:54:44.813Z,528.83
2018-12-03T08:55:44.797Z,530.19
2018-12-03T08:56:44.779Z,536.92
2018-12-03T08:57:44.770Z,529.22
2018-12-03T08:58:44.763Z,544.97
2018-12-03T08:59:44.747Z,541.20
2018-12-03T09:00:44.807Z,539.35
2018-12-03T09:01:44.725Z,532.38
2018-12-03T09:02:44.716Z,546.52
2018-12-03T09:03:44.714Z,540.81
2018-12-03T09:04:44.699Z,545.66
2018-12-03T09:05:44.678Z,540.57
2018-12-03T09:06:44.674Z,529.00
2018-12-03T09:07:44.665Z,530.96
2018-12-03T09:08:44.659Z,532.45
2018-12-03T09:09:44.657Z,529.71
2018-12-03T09:10:44.630Z,533.06
2018-12-03T09:11:44.616Z,539.73
2018-12-03T09:12:44.645Z,533.68
2018-12-03T09:13:44.608Z,533.74
2018-12-03T09:14:44.694Z,537.21
2018-12-03T09:15:44.578Z,532.27
2018-12-03T09:16:44.591Z,529.98
2018-12-03T09:17:44.572Z,537.11
2018-12-03T09:18:44.562Z,524.51
2018-12-03T09:19:44.543Z,527.83
2018-12-03T09:20:44.524Z,534.01
2018-12-03T09:21:44.511Z,532.02
2018-12-03T09:22:44.513Z,532.17
2018-12-03T09:23:44.492Z,532.85
2018-12-03T09:24:44.499Z,530.38
2018-12-03T09:25:44.467Z,535.16
2018-12-03T09:26:44.480Z,534.34
2018-12-03T09:27:44.490Z,535.59
2018-12-03T09:28:44.444Z,528.78
2018-12-03T09:29:44.428Z,528.61
2018-12-03T09:30:44.415Z,529.49
2018-12-03T09:31:44.411Z,526.60
2018-12-03T09:32:44.397Z,529.50
2018-12-03T09:33:44.414Z,530.35
2018-12-03T09:34:44.380Z,529.68
2018-12-03T09:35:44.371Z,527.87
2018-12-03T09:36:44.358Z,526.01
2018-12-03T09:37:44.350Z,523.76
2018-12-03T09:38:44.334Z,527.45
2018-12-03T09:39:44.318Z,524.15
2018-12-03T09:40:44.316Z,529.43
2018-12-03T09:41:44.322Z,526.58
2018-12-03T09:42:44.298Z,529.31
2018-12-03T09:43:44.284Z,527.60
2018-12-03T09:44:44.298Z,525.28
2018-12-03T09:45:44.340Z,533.10
2018-12-03T09:46:44.249Z,524.52
2018-12-03T09:47:44.234Z,524.56
2018-12-03T09:48:44.225Z,528.06
2018-12-03T09:49:44.223Z,527.99
2018-12-03T09:50:44.210Z,525.46
2018-12-03T09:51:44.231Z,520.21
2018-12-03T09:52:44.196Z,531.95
2018-12-03T09:53:44.200Z,520.36
2018-12-03T09:54:44.167Z,528.05
2018-12-03T09:55:44.157Z,524.37
2018-12-03T09:56:44.140Z,523.09
2018-12-03T09:57:44.129Z,524.89
2018-12-03T09:58:44.121Z,526.00
2018-12-03T09:59:44.133Z,529.85
2018-12-03T10:00:44.098Z,526.51
2018-12-03T10:01:44.089Z,525.95
2018-12-03T10:02:44.090Z,529.07
2018-12-03T10:03:44.062Z,527.86
2018-12-03T10:04:44.060Z,527.22
2018-12-03T10:05:44.052Z,529.14
2018-12-03T10:06:44.063Z,523.40
2018-12-03T10:07:44.061Z,527.17
2018-12-03T10:08:44.129Z,529.60
2018-12-03T10:09:44.009Z,518.13
2018-12-03T10:10:43.988Z,526.48
2018-12-03T10:11:43.991Z,526.59
2018-12-03T10:12:43.972Z,524.25
2018-12-03T10:13:43.963Z,524.24
2018-12-03T10:14:43.955Z,530.03
2018-12-03T10:15:43.941Z,529.57
2018-12-03T10:16:43.924Z,523.01
2018-12-03T10:17:43.918Z,527.51
2018-12-03T10:18:43.911Z,530.64
2018-12-03T10:19:43.895Z,523.60
2018-12-03T10:20:43.892Z,524.66
2018-12-03T10:21:43.877Z,531.39
2018-12-03T10:22:43.860Z,540.56
2018-12-03T10:23:43.865Z,533.39
2018-12-03T10:24:43.844Z,532.40
2018-12-03T10:25:43.843Z,532.21
2018-12-03T10:26:43.824Z,537.44
2018-12-03T10:27:43.810Z,535.42
2018-12-03T10:28:43.803Z,532.61
2018-12-03T10:29:43.795Z,539.70
2018-12-03T10:30:43.785Z,534.49
2018-12-03T10:31:43.771Z,537.52
2018-12-03T10:32:43.771Z,529.64
2018-12-03T10:33:43.750Z,531.46
2018-12-03T10:34:43.746Z,541.71
2018-12-03T10:35:43.729Z,536.76
2018-12-03T10:36:43.713Z,534.24
2018-12-03T10:37:43.706Z,532.97
2018-12-03T10:38:43.771Z,534.27
2018-12-03T10:39:43.686Z,533.95
2018-12-03T10:40:43.721Z,530.17
2018-12-03T10:41:43.673Z,530.22
2018-12-03T10:42:43.655Z,529.35
2018-12-03T10:43:43.643Z,529.56
2018-12-03T10:44:43.637Z,539.14
2018-12-03T10:45:43.624Z,535.71
2018-12-03T10:46:43.620Z,535.18
2018-12-03T10:47:43.601Z,534.31
2018-12-03T10:48:43.595Z,530.52
2018-12-03T10:49:43.584Z,534.37
2018-12-03T10:50:43.581Z,532.65
2018-12-03T10:51:43.570Z,534.13
2018-12-03T10:52:43.548Z,530.69
2018-12-03T10:53:43.538Z,532.61
2018-12-03T10:54:43.534Z,534.98
2018-12-03T10:55:43.512Z,531.98
2018-12-03T10:56:43.548Z,534.85
2018-12-03T10:57:43.498Z,533.16
2018-12-03T10:58:43.480Z,530.58
2018-12-03T10:59:43.466Z,534.74
2018-12-03T11:00:43.467Z,536.23
2018-12-03T11:01:43.447Z,531.38
2018-12-03T11:02:43.445Z,533.25
2018-12-03T11:03:43.430Z,533.13
2018-12-03T11:04:43.418Z,533.50
2018-12-03T11:05:43.414Z,529.51
2018-12-03T11:06:43.402Z,530.97
2018-12-03T11:07:43.406Z,528.22
2018-12-03T11:08:43.386Z,534.53
2018-12-03T11:09:43.363Z,527.85
2018-12-03T11:10:43.370Z,529.42
2018-12-03T11:11:43.396Z,534.92
2018-12-03T11:12:43.330Z,534.34
2018-12-03T11:13:43.332Z,530.69
2018-12-03T11:15:16.511Z,529.89
2018-12-03T11:16:16.464Z,532.27
2018-12-03T11:17:48.300Z,527.15
2018-12-03T11:18:48.014Z,533.13
2018-12-03T11:19:48.076Z,531.02
2018-12-03T11:20:48.000Z,530.44
2018-12-03T11:21:48.127Z,532.98
2018-12-03T11:22:47.973Z,532.31
2018-12-03T11:23:48.111Z,533.03
2018-12-03T11:24:47.956Z,532.85
2018-12-03T11:25:48.053Z,530.89
2018-12-03T11:26:47.944Z,530.85
2018-12-03T11:27:48.069Z,532.42
2018-12-03T11:28:47.920Z,532.44
2018-12-03T11:29:48.089Z,530.02
2018-12-03T11:30:47.899Z,535.95
2018-12-03T11:31:48.015Z,532.43
2018-12-03T11:32:47.866Z,534.93
2018-12-03T11:33:48.032Z,540.39
2018-12-03T11:34:47.843Z,539.65
2018-12-03T11:35:48.059Z,537.31
2018-12-03T11:36:47.881Z,540.94
2018-12-03T11:37:47.985Z,542.24
2018-12-03T11:38:47.795Z,541.73
2018-12-03T11:39:48.873Z,539.85
2018-12-03T11:40:47.781Z,548.29
2018-12-03T11:41:47.815Z,546.90
2018-12-03T11:42:47.755Z,545.91
2018-12-03T11:43:47.851Z,553.39
2018-12-03T11:44:47.754Z,543.53
2018-12-03T11:45:47.863Z,542.19
2018-12-03T11:46:47.790Z,549.22
2018-12-03T11:47:47.791Z,547.04
2018-12-03T11:48:47.752Z,543.54
2018-12-03T11:49:47.802Z,549.61
2018-12-03T11:50:47.664Z,540.22
2018-12-03T11:51:48.769Z,544.25
2018-12-03T11:52:48.481Z,541.29
2018-12-03T11:53:47.752Z,544.98
2018-12-03T11:54:47.645Z,549.19
2018-12-03T11:55:47.775Z,539.85
2018-12-03T11:56:47.628Z,542.74
2018-12-03T11:57:47.800Z,540.50
2018-12-03T11:58:47.591Z,541.73
2018-12-03T11:59:47.590Z,540.44
2018-12-03T12:00:47.641Z,542.92
2018-12-03T12:01:47.562Z,537.18
2018-12-03T12:02:47.658Z,542.29
2018-12-03T12:03:47.542Z,540.81
2018-12-03T12:04:47.691Z,555.37
2018-12-03T12:05:47.522Z,539.54
2018-12-03T12:06:47.597Z,543.45
2018-12-03T12:07:47.505Z,542.36
2018-12-03T12:08:47.639Z,542.66
2018-12-03T12:09:47.486Z,548.94
2018-12-03T12:10:47.535Z,549.67
2018-12-03T12:11:47.505Z,545.92
2018-12-03T12:12:47.577Z,545.43
2018-12-03T12:13:47.471Z,545.20
2018-12-03T12:14:47.594Z,545.30
2018-12-03T12:15:47.407Z,544.78
2018-12-03T12:16:47.519Z,539.34
2018-12-03T12:17:47.406Z,542.52
2018-12-03T12:18:47.542Z,541.66
2018-12-03T12:19:48.045Z,551.10
2018-12-03T12:20:47.466Z,542.46
2018-12-03T12:21:47.360Z,538.47
2018-12-03T12:22:47.388Z,537.43
2018-12-03T12:23:47.328Z,542.30
2018-12-03T12:24:47.406Z,537.63
2018-12-03T12:25:47.338Z,537.19
2018-12-03T12:26:47.456Z,544.52
2018-12-03T12:27:47.285Z,543.93
2018-12-03T12:28:47.452Z,537.17
2018-12-03T12:29:47.337Z,537.92
2018-12-03T12:30:47.256Z,544.58
2018-12-03T12:31:47.385Z,538.90
2018-12-03T12:32:47.240Z,539.41
2018-12-03T12:33:47.427Z,540.59
2018-12-03T12:34:47.213Z,538.04
2018-12-03T12:35:47.525Z,538.08
2018-12-03T12:36:47.184Z,536.44
2018-12-03T12:37:47.376Z,540.18
2018-12-03T12:38:47.178Z,538.94
2018-12-03T12:39:47.165Z,547.88
2018-12-03T12:40:47.196Z,538.89
2018-12-03T12:41:47.133Z,540.04
2018-12-03T12:42:47.231Z,537.59
2018-12-03T12:43:47.147Z,535.30
2018-12-03T12:44:47.140Z,533.89
2018-12-03T12:45:47.198Z,538.22
2018-12-03T12:46:47.150Z,533.17
2018-12-03T12:47:47.185Z,539.71
2018-12-03T12:48:47.066Z,538.66
2018-12-03T12:49:47.196Z,538.20
2018-12-03T12:50:47.039Z,534.99
2018-12-03T12:51:51.631Z,535.18
2018-12-03T12:52:47.934Z,537.99
2018-12-03T12:53:47.138Z,532.43
2018-12-03T12:54:47.114Z,534.60
2018-12-03T12:55:47.194Z,535.59
2018-12-03T12:56:46.989Z,536.77
2018-12-03T12:57:46.976Z,540.40
2018-12-03T12:58:47.115Z,538.58
2018-12-03T12:59:46.961Z,531.92
2018-12-03T13:00:47.125Z,532.11
2018-12-03T13:01:46.940Z,540.56
2018-12-03T13:02:47.062Z,532.47
2018-12-03T13:03:46.895Z,534.30
2018-12-03T13:04:46.977Z,537.37
2018-12-03T13:05:46.898Z,533.55
2018-12-03T13:06:46.989Z,535.00
2018-12-03T13:07:46.855Z,535.72
2018-12-03T13:08:47.029Z,535.05
2018-12-03T13:09:46.832Z,532.05
2018-12-03T13:10:46.935Z,535.49
2018-12-03T13:11:46.815Z,539.31
2018-12-03T13:12:46.957Z,536.91
2018-12-03T13:13:46.791Z,533.32
2018-12-03T13:14:46.870Z,532.42
2018-12-03T13:15:46.776Z,532.63
2018-12-03T13:16:46.905Z,536.09
2018-12-03T13:17:46.778Z,536.45
2018-12-03T13:18:46.926Z,535.94
2018-12-03T13:19:46.728Z,537.48
2018-12-03T13:20:46.731Z,536.66
2018-12-03T13:21:46.860Z,536.05
2018-12-03T13:22:46.700Z,534.06
2018-12-03T13:23:46.781Z,533.34
2018-12-03T13:24:46.674Z,535.06
2018-12-03T13:25:46.811Z,535.84
2018-12-03T13:26:46.660Z,533.22
2018-12-03T13:27:46.731Z,540.01
2018-12-03T13:28:46.637Z,536.71
2018-12-03T13:29:46.743Z,534.41
2018-12-03T13:30:46.609Z,534.90
2018-12-03T13:31:46.761Z,530.62
2018-12-03T13:32:46.617Z,534.48
2018-12-03T13:33:46.689Z,536.23
2018-12-03T13:34:46.641Z,530.02
2018-12-03T13:35:46.714Z,535.25
2018-12-03T13:36:46.535Z,539.80
2018-12-03T13:37:46.742Z,535.55
2018-12-03T13:38:46.546Z,533.56
2018-12-03T13:39:46.520Z,533.57
2018-12-03T13:40:46.675Z,534.21
2018-12-03T13:41:46.498Z,531.09
2018-12-03T13:42:46.694Z,528.39
2018-12-03T13:43:46.489Z,534.58
2018-12-03T13:44:46.507Z,531.08
2018-12-03T13:45:46.459Z,533.97
2018-12-03T13:46:46.448Z,532.60
2018-12-03T13:47:46.544Z,531.03
2018-12-03T13:48:46.424Z,530.30
2018-12-03T13:49:46.591Z,533.25
2018-12-03T13:50:46.394Z,529.43
2018-12-03T13:51:46.473Z,530.45
2018-12-03T13:52:46.498Z,526.67
2018-12-03T13:53:46.410Z,529.74
2018-12-03T13:54:46.513Z,533.94
2018-12-03T13:55:46.347Z,528.11
2018-12-03T13:56:46.568Z,530.58
2018-12-03T13:57:46.343Z,528.98
2018-12-03T13:58:46.480Z,526.53
2018-12-03T13:59:46.299Z,528.26
2018-12-03T14:00:46.537Z,532.65
2018-12-03T14:01:46.289Z,532.08
2018-12-03T14:02:46.431Z,528.07
2018-12-03T14:03:46.258Z,531.12
2018-12-03T14:04:46.344Z,531.02
2018-12-03T14:05:46.335Z,531.68
2018-12-03T14:06:46.419Z,532.07
2018-12-03T14:07:46.220Z,533.22
2018-12-03T14:08:46.277Z,532.46
2018-12-03T14:09:46.216Z,528.94
2018-12-03T14:10:47.344Z,525.65
2018-12-03T14:11:46.177Z,527.77
2018-12-03T14:12:46.226Z,528.39
2018-12-03T14:13:46.185Z,527.23
2018-12-03T14:14:46.452Z,501.53
2018-12-03T14:15:46.499Z,527.89
2018-12-03T14:16:46.289Z,516.28
2018-12-03T14:17:46.109Z,530.23
2018-12-03T14:18:48.266Z,528.08
2018-12-03T14:19:46.158Z,526.59
2018-12-03T14:20:47.726Z,533.73
2018-12-03T14:21:46.129Z,527.51
2018-12-03T14:22:47.200Z,549.72
2018-12-03T14:23:46.064Z,519.62
2018-12-03T14:24:46.211Z,554.41
2018-12-03T14:25:46.035Z,540.72
2018-12-03T14:26:46.764Z,540.69
2018-12-03T14:27:46.218Z,544.13
2018-12-03T14:28:50.818Z,545.15
2018-12-03T14:29:46.057Z,539.16
2018-12-03T14:30:48.183Z,539.42
2018-12-03T14:31:46.730Z,539.41
2018-12-03T14:32:48.982Z,539.47
2018-12-03T14:33:46.234Z,540.57
2018-12-03T14:34:46.051Z,537.08
2018-12-03T14:35:46.077Z,548.82
2018-12-03T14:36:45.941Z,544.87
2018-12-03T14:37:47.036Z,537.06
2018-12-03T14:38:45.978Z,543.57
2018-12-03T14:39:47.081Z,540.13
2018-12-03T14:40:45.945Z,552.16
2018-12-03T14:41:46.111Z,504.63
2018-12-03T14:42:45.861Z,552.37
2018-12-03T14:43:46.305Z,550.16
2018-12-03T14:44:45.928Z,555.86
2018-12-03T14:45:47.060Z,546.11
2018-12-03T14:46:45.885Z,549.66
2018-12-03T14:47:45.946Z,542.12
2018-12-03T14:48:45.844Z,543.24
2018-12-03T14:49:45.848Z,548.40
2018-12-03T14:50:45.771Z,544.75
2018-12-03T14:51:51.735Z,545.17
2018-12-03T14:52:45.738Z,545.62
2018-12-03T14:53:45.915Z,547.16
2018-12-03T14:54:45.743Z,546.51
2018-12-03T14:55:45.817Z,547.91
2018-12-03T14:56:45.701Z,550.47
2018-12-03T14:57:45.844Z,549.34
2018-12-03T14:58:45.662Z,543.28
2018-12-03T14:59:45.855Z,546.48
2018-12-03T15:00:45.670Z,545.10
2018-12-03T15:01:45.808Z,545.10
2018-12-03T15:02:45.693Z,543.58
2018-12-03T15:03:45.820Z,548.70
2018-12-03T15:04:45.626Z,546.42
2018-12-03T15:05:45.642Z,543.68
2018-12-03T15:06:45.589Z,554.84
2018-12-03T15:07:45.701Z,548.18
2018-12-03T15:08:45.574Z,535.77
2018-12-03T15:09:45.714Z,546.19
2018-12-03T15:10:45.611Z,545.59
2018-12-03T15:11:45.634Z,543.82
2018-12-03T15:12:45.668Z,547.55
2018-12-03T15:13:45.805Z,544.26
2018-12-03T15:14:45.583Z,545.80
2018-12-03T15:15:45.550Z,546.86
2018-12-03T15:16:45.694Z,548.25
2018-12-03T15:17:45.567Z,547.46
2018-12-03T15:18:45.668Z,543.14
2018-12-03T15:19:45.484Z,545.79
2018-12-03T15:20:46.741Z,537.98
2018-12-03T15:21:45.426Z,542.38
2018-12-03T15:22:45.575Z,543.62
2018-12-03T15:23:45.443Z,544.46
2018-12-03T15:24:45.509Z,544.94
2018-12-03T15:25:46.178Z,544.47
2018-12-03T15:26:45.520Z,542.32
2018-12-03T15:27:45.374Z,544.17
2018-12-03T15:28:46.453Z,544.22
2018-12-03T15:29:46.041Z,541.09
2018-12-03T15:30:45.467Z,546.02
2018-12-03T15:31:45.681Z,546.41
2018-12-03T15:32:45.502Z,547.60
2018-12-03T15:33:45.320Z,546.35
2018-12-03T15:34:45.421Z,542.01
2018-12-03T15:35:45.291Z,546.67
2018-12-03T15:36:45.429Z,539.49
2018-12-03T15:37:45.267Z,541.38
2018-12-03T15:38:45.446Z,544.38
2018-12-03T15:39:45.253Z,538.36
2018-12-03T15:40:45.229Z,543.68
2018-12-03T15:41:45.329Z,548.49
2018-12-03T15:42:45.214Z,545.74
2018-12-03T15:43:45.300Z,541.90
2018-12-03T15:44:45.193Z,541.28
2018-12-03T15:45:45.336Z,537.73
2018-12-03T15:46:45.162Z,539.61
2018-12-03T15:47:45.247Z,543.02
2018-12-03T15:48:45.275Z,536.98
2018-12-03T15:49:45.306Z,543.49
2018-12-03T15:50:45.122Z,540.78
2018-12-03T15:51:45.296Z,538.24
2018-12-03T15:52:45.097Z,538.60
2018-12-03T15:53:46.250Z,534.39
2018-12-03T15:54:45.090Z,537.33
2018-12-03T15:55:45.242Z,537.77
2018-12-03T15:56:45.057Z,537.59
2018-12-03T15:57:47.365Z,537.63
2018-12-03T15:58:45.059Z,531.13
2018-12-03T15:59:45.182Z,539.99
2018-12-03T16:00:45.010Z,536.17
2018-12-03T16:01:45.118Z,533.79
2018-12-03T16:02:45.001Z,536.16
2018-12-03T16:03:45.125Z,532.15
2018-12-03T16:04:44.970Z,536.14
2018-12-03T16:05:45.062Z,533.51
2018-12-03T16:06:44.993Z,537.78
2018-12-03T16:07:45.087Z,535.23
2018-12-03T16:08:44.926Z,535.00
2018-12-03T16:09:45.004Z,538.06
2018-12-03T16:10:44.914Z,538.17
2018-12-03T16:11:45.019Z,530.89
2018-12-03T16:12:45.537Z,532.11
2018-12-03T16:13:45.051Z,536.10
2018-12-03T16:14:44.870Z,531.32
2018-12-03T16:15:45.986Z,534.38
2018-12-03T16:16:44.849Z,534.76
2018-12-03T16:17:44.983Z,535.72
2018-12-03T16:18:44.900Z,532.38
2018-12-03T16:19:45.060Z,535.56
2018-12-03T16:20:44.784Z,535.39
2018-12-03T16:21:44.962Z,533.13
2018-12-03T16:22:44.781Z,532.86
2018-12-03T16:23:44.852Z,531.22
2018-12-03T16:24:44.750Z,532.72
2018-12-03T16:25:44.885Z,528.96
2018-12-03T16:26:44.736Z,531.73
2018-12-03T16:27:44.796Z,530.17
2018-12-03T16:28:44.741Z,531.62
2018-12-03T16:29:44.833Z,534.53
2018-12-03T16:30:44.689Z,532.58
2018-12-03T16:31:44.850Z,533.91
2018-12-03T16:32:44.664Z,533.88
2018-12-03T16:33:44.775Z,536.30
2018-12-03T16:34:44.648Z,532.62
2018-12-03T16:35:45.009Z,533.10
2018-12-03T16:36:44.633Z,536.26
2018-12-03T16:37:45.743Z,536.50
2018-12-03T16:38:44.604Z,531.76
2018-12-03T16:39:44.736Z,537.76
2018-12-03T16:40:44.620Z,532.62
2018-12-03T16:41:44.761Z,536.44
2018-12-03T16:42:44.569Z,531.27
2018-12-03T16:43:44.684Z,531.90
2018-12-03T16:44:44.557Z,534.34
2018-12-03T16:45:44.603Z,536.49
2018-12-03T16:46:44.515Z,534.49
2018-12-03T16:47:44.637Z,533.21
2018-12-03T16:48:44.497Z,535.87
2018-12-03T16:49:44.654Z,535.23
2018-12-03T16:50:44.480Z,537.52
2018-12-03T16:51:44.568Z,538.55
2018-12-03T16:52:44.484Z,539.48
2018-12-03T16:53:44.614Z,540.98
2018-12-03T16:54:44.460Z,536.18
2018-12-03T16:55:44.507Z,539.71
2018-12-03T16:56:44.418Z,534.98
2018-12-03T16:57:44.540Z,534.96
2018-12-03T16:58:44.398Z,537.01
2018-12-03T16:59:44.575Z,536.65
2018-12-03T17:00:44.389Z,535.74
2018-12-03T17:01:44.493Z,533.15
2018-12-03T17:02:44.364Z,536.72
2018-12-03T17:03:44.432Z,541.33
2018-12-03T17:04:44.332Z,534.90
2018-12-03T17:05:44.438Z,537.75
2018-12-03T17:06:44.300Z,534.55
2018-12-03T17:07:44.366Z,535.35
2018-12-03T17:08:44.293Z,532.73
2018-12-03T17:09:44.382Z,537.11
2018-12-03T17:10:44.303Z,533.75
2018-12-03T17:11:44.417Z,535.90
2018-12-03T17:12:44.242Z,533.54
2018-12-03T17:13:44.330Z,537.36
2018-12-03T17:14:44.218Z,531.87
2018-12-03T17:15:44.389Z,535.45
2018-12-03T17:16:44.222Z,531.69
2018-12-03T17:17:44.383Z,533.79
2018-12-03T17:18:44.179Z,536.09
2018-12-03T17:19:44.295Z,537.10
2018-12-03T17:20:44.154Z,534.07
2018-12-03T17:21:44.341Z,531.73
2018-12-03T17:22:44.150Z,534.68
2018-12-03T17:23:44.328Z,533.80
2018-12-03T17:24:44.118Z,530.05
2018-12-03T17:25:44.158Z,534.39
2018-12-03T17:26:44.105Z,531.89
2018-12-03T17:27:44.194Z,532.87
2018-12-03T17:28:44.089Z,533.50
2018-12-03T17:29:44.213Z,532.05
2018-12-03T17:30:44.064Z,533.23
2018-12-03T17:31:44.138Z,536.48
2018-12-03T17:32:44.025Z,539.18
2018-12-03T17:33:44.152Z,530.32
2018-12-03T17:34:48.823Z,535.46
2018-12-03T17:35:45.193Z,531.19
2018-12-03T17:36:43.988Z,535.49
2018-12-03T17:37:44.095Z,534.24
2018-12-03T17:38:43.965Z,530.87
2018-12-03T17:39:44.119Z,533.71
2018-12-03T17:40:43.953Z,531.57
2018-12-03T17:41:44.165Z,533.97
2018-12-03T17:42:43.933Z,530.48
2018-12-03T17:43:44.082Z,534.02
2018-12-03T17:44:43.913Z,530.91
2018-12-03T17:45:43.989Z,531.34
2018-12-03T17:46:43.885Z,535.62
2018-12-03T17:47:43.917Z,531.00
2018-12-03T17:48:43.881Z,535.18
2018-12-03T17:49:43.934Z,529.86
2018-12-03T17:50:43.842Z,513.25
2018-12-03T17:51:43.957Z,533.75
2018-12-03T17:52:43.826Z,532.87
2018-12-03T17:53:43.880Z,534.07
2018-12-03T17:54:43.804Z,531.68
2018-12-03T17:55:43.906Z,531.38
2018-12-03T17:56:43.773Z,536.02
2018-12-03T17:57:43.944Z,534.26
2018-12-03T17:58:43.763Z,536.00
2018-12-03T17:59:43.849Z,531.62
2018-12-03T18:00:43.747Z,532.02
2018-12-03T18:01:43.871Z,534.11
2018-12-03T18:02:43.721Z,533.10
2018-12-03T18:03:43.908Z,534.26
2018-12-03T18:04:43.698Z,535.87
2018-12-03T18:05:43.712Z,533.03
2018-12-03T18:06:43.695Z,533.31
2018-12-03T18:07:43.742Z,533.25
2018-12-03T18:08:43.656Z,533.30
2018-12-03T18:09:43.763Z,540.13
2018-12-03T18:10:43.635Z,534.42
2018-12-03T18:11:44.578Z,533.14
2018-12-03T18:12:43.626Z,534.94
2018-12-03T18:13:43.715Z,535.73
2018-12-03T18:14:43.587Z,534.70
2018-12-03T18:15:43.731Z,533.49
2018-12-03T18:16:43.566Z,533.07
2018-12-03T18:17:43.655Z,537.89
2018-12-03T18:18:43.560Z,533.12
2018-12-03T18:19:43.675Z,532.84
2018-12-03T18:20:43.526Z,535.94
2018-12-03T18:21:43.729Z,533.94
2018-12-03T18:22:43.497Z,532.41
2018-12-03T18:23:43.632Z,536.02
2018-12-03T18:24:43.500Z,533.02
2018-12-03T18:25:43.652Z,535.61
2018-12-03T18:26:43.504Z,535.06
2018-12-03T18:27:43.573Z,534.22
2018-12-03T18:28:43.434Z,533.57
2018-12-03T18:29:43.487Z,534.75
2018-12-03T18:30:43.443Z,534.34
2018-12-03T18:31:43.520Z,531.38
2018-12-03T18:32:43.421Z,533.90
2018-12-03T18:33:43.538Z,536.14
2018-12-03T18:34:43.378Z,535.04
2018-12-03T18:35:43.457Z,534.24
2018-12-03T18:36:43.414Z,534.30
2018-12-03T18:37:43.477Z,534.20
2018-12-03T18:38:43.334Z,534.90
2018-12-03T18:39:43.520Z,537.72
2018-12-03T18:40:43.313Z,536.17
2018-12-03T18:41:43.458Z,532.67
2018-12-03T18:42:43.386Z,537.68
2018-12-03T18:43:43.464Z,535.72
2018-12-03T18:44:43.275Z,536.54
2018-12-03T18:45:43.475Z,537.15
2018-12-03T18:46:43.252Z,539.89
2018-12-03T18:47:43.399Z,536.82
2018-12-03T18:48:43.227Z,539.52
2018-12-03T18:49:43.308Z,533.06
2018-12-03T18:50:43.199Z,533.80
2018-12-03T18:51:43.238Z,535.79
2018-12-03T18:52:43.192Z,532.75
2018-12-03T18:53:43.259Z,533.03
2018-12-03T18:54:43.161Z,534.25
2018-12-03T18:55:43.277Z,535.63
2018-12-03T18:56:43.174Z,531.12
2018-12-03T18:57:43.206Z,533.35
2018-12-03T18:58:43.122Z,536.42
2018-12-03T18:59:43.219Z,531.73
2018-12-03T19:00:43.099Z,535.44
2018-12-03T19:01:43.279Z,537.08
2018-12-03T19:02:43.085Z,532.19
2018-12-03T19:03:43.184Z,535.45
2018-12-03T19:04:43.054Z,535.34
2018-12-03T19:05:43.192Z,535.59
2018-12-03T19:06:43.035Z,535.21
2018-12-03T19:07:43.242Z,536.77
2018-12-03T19:08:43.030Z,532.83
2018-12-03T19:09:43.035Z,536.39
2018-12-03T19:10:43.002Z,532.61
2018-12-03T19:11:43.062Z,531.92
2018-12-03T19:12:42.995Z,534.79
2018-12-03T19:13:42.949Z,539.42
2018-12-03T19:14:43.105Z,539.72
2018-12-03T19:15:42.942Z,533.64
2018-12-03T19:16:43.016Z,534.72
2018-12-03T19:17:42.923Z,534.20
2018-12-03T19:18:43.044Z,536.53
2018-12-03T19:19:42.893Z,531.44
2018-12-03T19:20:43.074Z,531.23
2018-12-03T19:21:42.903Z,533.88
2018-12-03T19:22:42.992Z,532.97
2018-12-03T19:23:42.859Z,534.76
2018-12-03T19:24:43.019Z,533.37
2018-12-03T19:25:43.016Z,536.94
2018-12-03T19:26:42.820Z,534.89
2018-12-03T19:27:42.946Z,532.21
2018-12-03T19:28:42.795Z,534.25
2018-12-03T19:29:42.963Z,531.32
2018-12-03T19:30:42.816Z,532.92
2018-12-03T19:31:42.894Z,531.38
2018-12-03T19:32:42.764Z,531.14
2018-12-03T19:33:42.809Z,533.32
2018-12-03T19:34:42.755Z,532.53
2018-12-03T19:35:42.837Z,535.45
2018-12-03T19:36:42.741Z,531.77
2018-12-03T19:37:42.738Z,536.37
2018-12-03T19:38:42.867Z,531.77
2018-12-03T19:39:42.708Z,533.13
2018-12-03T19:40:42.787Z,532.46
2018-12-03T19:41:42.689Z,532.79
2018-12-03T19:42:42.854Z,532.82
2018-12-03T19:43:42.710Z,535.36
2018-12-03T19:44:42.859Z,536.48
2018-12-03T19:45:42.622Z,529.23
2018-12-03T19:46:42.798Z,535.36
2018-12-03T19:47:42.597Z,533.27
2018-12-03T19:48:42.787Z,531.87
2018-12-03T19:49:42.608Z,534.23
2018-12-03T19:50:42.711Z,533.10
2018-12-03T19:51:42.565Z,533.31
2018-12-03T19:52:42.638Z,531.71
2018-12-03T19:53:42.552Z,534.65
2018-12-03T19:54:42.646Z,531.88
2018-12-03T19:55:42.525Z,531.50
2018-12-03T19:56:42.593Z,531.76
2018-12-03T19:57:42.494Z,532.86
2018-12-03T19:58:42.592Z,530.35
2018-12-03T19:59:42.495Z,534.83
2018-12-03T20:00:42.617Z,533.95
2018-12-03T20:01:42.457Z,534.73
2018-12-03T20:02:42.557Z,533.10
2018-12-03T20:03:42.434Z,535.69
2018-12-03T20:04:42.564Z,530.57
2018-12-03T20:05:42.406Z,532.90
2018-12-03T20:06:42.633Z,534.63
2018-12-03T20:07:42.390Z,532.46
2018-12-03T20:08:42.517Z,533.01
2018-12-03T20:09:42.389Z,531.35
2018-12-03T20:10:42.875Z,536.20
2018-12-03T20:11:42.351Z,535.03
2018-12-03T20:12:42.459Z,530.57
2018-12-03T20:13:42.353Z,529.94
2018-12-03T20:14:42.377Z,526.67
2018-12-03T20:15:42.314Z,529.91
2018-12-03T20:16:42.396Z,532.48
2018-12-03T20:17:43.588Z,535.51
2018-12-03T20:18:42.420Z,532.75
2018-12-03T20:19:42.285Z,532.35
2018-12-03T20:20:42.333Z,534.20
2018-12-03T20:21:42.241Z,532.63
2018-12-03T20:22:42.375Z,531.36
2018-12-03T20:23:42.213Z,533.35
2018-12-03T20:24:44.337Z,531.08
2018-12-03T20:25:42.225Z,536.17
2018-12-03T20:26:42.315Z,530.55
2018-12-03T20:27:42.214Z,531.70
2018-12-03T20:28:42.343Z,530.61
2018-12-03T20:29:42.149Z,534.41
2018-12-03T20:30:42.259Z,530.69
2018-12-03T20:31:42.147Z,533.01
2018-12-03T20:32:42.177Z,534.52
2018-12-03T20:33:42.107Z,537.52
2018-12-03T20:34:42.201Z,537.01
2018-12-03T20:35:42.110Z,531.70
2018-12-03T20:36:42.125Z,532.21
2018-12-03T20:37:42.064Z,531.03
2018-12-03T20:38:42.142Z,530.95
2018-12-03T20:39:42.047Z,532.22
2018-12-03T20:40:42.178Z,535.48
2018-12-03T20:41:42.031Z,533.85
2018-12-03T20:42:42.209Z,534.07
2018-12-03T20:43:42.004Z,531.66
2018-12-03T20:44:42.160Z,533.25
2018-12-03T20:45:41.977Z,535.30
2018-12-03T20:46:42.146Z,536.25
2018-12-03T20:47:41.964Z,528.67
2018-12-03T20:48:42.105Z,532.16
2018-12-03T20:49:41.945Z,531.85
2018-12-03T20:50:43.650Z,532.11
2018-12-03T20:51:41.917Z,534.11
2018-12-03T20:52:47.198Z,531.65
2018-12-03T20:53:42.911Z,530.00
2018-12-03T20:54:41.936Z,535.12
2018-12-03T20:55:41.877Z,530.35
2018-12-03T20:56:41.951Z,536.00
2018-12-03T20:57:41.847Z,534.14
2018-12-03T20:58:41.973Z,528.75
2018-12-03T20:59:41.839Z,529.68
2018-12-03T21:00:41.903Z,531.07